Palmview, Texas
Current Conditions -  °F | °C
As of 4:53 PM on Thursday 18 Dec 2014 (Local Time) from KMFE Reporting Station
Light Rain Light Rain  
Wind Chill: 65°   Ceiling: 2000
Heat Index: 65°   Visibility: 2.5mi
Dew Point: 62°   Wind: 5mph
Humidity: 90%   Direction: 270°W
Pressure: 29.97"   Gusts: NA
Location:  26.2182°N, 98.327°W
Report Text: KMFE 182253Z 27004KT 2 1/2SM -RA BR BKN020 OVC029 18/17 A2997 RMK AO2 RAB2155E05B36 SLP147 P0000 T01830167
Loading
Personal Weather Stations






























Interactive Weather Map New forecast layout! Learn more

10-Day Weather Forecast

Advertisements
Track Severe Weather on mobile